createdAt,value
2023-07-16T00:00:02.519Z,99251.63
2023-07-16T00:04:20.359Z,99248.98
2023-07-16T00:08:18.384Z,99244.88
2023-07-16T00:12:16.292Z,99245.11
2023-07-16T00:16:14.553Z,99239.42
2023-07-16T00:20:12.310Z,99238.36
2023-07-16T00:24:10.357Z,99239.77
2023-07-16T00:28:08.262Z,99236.45
2023-07-16T00:32:06.331Z,99236.20
2023-07-16T00:36:05.274Z,99235.90
2023-07-16T00:40:03.357Z,99237.04
2023-07-16T00:44:02.254Z,99234.27
2023-07-16T00:48:00.378Z,99233.17
2023-07-16T00:51:59.252Z,99229.67
2023-07-16T00:55:57.292Z,99225.83
2023-07-16T00:59:55.263Z,99224.72
2023-07-16T01:03:53.333Z,99224.92
2023-07-16T01:07:53.253Z,99223.38
2023-07-16T01:11:52.284Z,99221.75
2023-07-16T01:15:50.272Z,99223.89
2023-07-16T01:19:51.241Z,99219.08
2023-07-16T01:24:10.230Z,99216.34
2023-07-16T01:28:20.271Z,99219.67
2023-07-16T01:32:22.314Z,99221.08
2023-07-16T01:36:20.264Z,99222.34
2023-07-16T01:40:18.209Z,99226.51
2023-07-16T01:44:16.305Z,99221.16
2023-07-16T01:48:30.224Z,99222.36
2023-07-16T01:52:28.221Z,99212.94
2023-07-16T01:56:26.208Z,99213.63
2023-07-16T02:00:24.204Z,99210.88
2023-07-16T02:04:22.210Z,99207.21
2023-07-16T02:08:23.209Z,99207.45
2023-07-16T02:12:21.172Z,99206.55
2023-07-16T02:16:19.557Z,99206.13
2023-07-16T02:20:18.200Z,99205.77
2023-07-16T02:24:16.223Z,99205.98
2023-07-16T02:28:16.191Z,99200.38
2023-07-16T02:32:14.166Z,99198.91
2023-07-16T02:36:12.186Z,99197.45
2023-07-16T02:40:10.196Z,99200.83
2023-07-16T02:44:17.182Z,99197.10
2023-07-16T02:48:15.302Z,99194.34
2023-07-16T02:52:13.152Z,99191.58
2023-07-16T02:56:11.200Z,99195.39
2023-07-16T03:00:09.155Z,99193.92
2023-07-16T03:04:07.183Z,99199.58
2023-07-16T03:08:05.125Z,99192.20
2023-07-16T03:12:03.165Z,99193.98
2023-07-16T03:16:01.108Z,99192.95
2023-07-16T03:19:59.173Z,99196.21
2023-07-16T03:23:57.134Z,99193.38
2023-07-16T03:27:56.145Z,99193.90
2023-07-16T03:31:55.148Z,99194.36
2023-07-16T03:35:53.116Z,99192.55
2023-07-16T03:39:51.203Z,99188.90
2023-07-16T03:43:49.132Z,99181.77
2023-07-16T03:47:47.168Z,99182.18
2023-07-16T03:51:45.190Z,99183.57
2023-07-16T03:55:43.220Z,99179.81
2023-07-16T03:59:41.149Z,99176.13
2023-07-16T04:03:39.109Z,99184.20
2023-07-16T04:07:37.160Z,99187.98
2023-07-16T04:11:35.117Z,99187.66
2023-07-16T04:15:33.164Z,99192.84
2023-07-16T04:19:31.098Z,99191.98
2023-07-16T04:23:29.101Z,99193.48
2023-07-16T04:27:27.057Z,99196.58
2023-07-16T04:31:25.140Z,99197.21
2023-07-16T04:35:23.037Z,99200.73
2023-07-16T04:39:21.083Z,99202.30
2023-07-16T04:43:19.057Z,99202.30
2023-07-16T04:47:17.081Z,99201.08
2023-07-16T04:51:15.100Z,99202.53
2023-07-16T04:55:13.051Z,99209.44
2023-07-16T04:59:11.054Z,99212.63
2023-07-16T05:03:09.116Z,99214.61
2023-07-16T05:07:07.048Z,99216.70
2023-07-16T05:11:05.252Z,99220.14
2023-07-16T05:15:04.062Z,99217.81
2023-07-16T05:19:02.319Z,99221.34
2023-07-16T05:23:00.092Z,99221.20
2023-07-16T05:26:58.059Z,99217.80
2023-07-16T05:30:56.048Z,99213.52
2023-07-16T05:34:54.047Z,99211.61
2023-07-16T05:38:52.203Z,99213.24
2023-07-16T05:42:50.057Z,99213.53
2023-07-16T05:46:49.141Z,99217.11
2023-07-16T05:50:47.092Z,99217.40
2023-07-16T05:54:45.078Z,99224.93
2023-07-16T05:58:43.036Z,99226.00
2023-07-16T06:02:41.085Z,99235.02
2023-07-16T06:06:39.070Z,99234.81
2023-07-16T06:10:37.008Z,99231.30
2023-07-16T06:14:35.026Z,99224.92
2023-07-16T06:18:32.990Z,99227.75
2023-07-16T06:22:31.127Z,99227.52
2023-07-16T06:26:28.998Z,99225.29
2023-07-16T06:30:27.018Z,99223.56
2023-07-16T06:34:25.044Z,99222.62
2023-07-16T06:38:22.986Z,99224.95
2023-07-16T06:42:21.007Z,99224.36
2023-07-16T06:46:19.238Z,99228.66
2023-07-16T06:50:16.975Z,99223.90
2023-07-16T06:54:14.988Z,99223.33
2023-07-16T06:58:12.936Z,99221.55
2023-07-16T07:02:11.036Z,99213.77
2023-07-16T07:06:08.943Z,99210.52
2023-07-16T07:10:06.969Z,99207.97
2023-07-16T07:14:04.976Z,99201.66
2023-07-16T07:18:03.049Z,99200.71
2023-07-16T07:22:01.144Z,99203.16
2023-07-16T07:25:58.998Z,99207.89
2023-07-16T07:29:59.915Z,99207.14
2023-07-16T07:33:57.948Z,99205.96
2023-07-16T07:37:55.929Z,99206.47
2023-07-16T07:41:53.939Z,99208.00
2023-07-16T07:45:51.929Z,99206.63
2023-07-16T07:49:49.969Z,99205.52
2023-07-16T07:53:47.955Z,99204.93
2023-07-16T07:57:45.908Z,99199.70
2023-07-16T08:01:43.981Z,99195.36
2023-07-16T08:05:41.935Z,99193.55
2023-07-16T08:09:41.914Z,99200.60
2023-07-16T08:13:39.954Z,99200.25
2023-07-16T08:17:37.981Z,99200.86
2023-07-16T08:21:35.930Z,99199.57
2023-07-16T08:25:34.974Z,99200.11
2023-07-16T08:29:32.939Z,99211.16
2023-07-16T08:33:30.923Z,99214.40
2023-07-16T08:37:29.920Z,99218.48
2023-07-16T08:41:27.893Z,99224.42
2023-07-16T08:45:27.013Z,99223.89
2023-07-16T08:49:26.893Z,99225.02
2023-07-16T08:53:24.909Z,99221.93
2023-07-16T08:57:24.861Z,99228.38
2023-07-16T09:01:24.961Z,99226.83
2023-07-16T09:05:38.569Z,99223.93
2023-07-16T09:09:38.890Z,99210.88
2023-07-16T09:13:36.887Z,99208.85
2023-07-16T09:17:38.955Z,99199.33
2023-07-16T09:21:41.867Z,99196.48
2023-07-16T09:25:47.884Z,99194.02
2023-07-16T09:29:45.862Z,99191.89
2023-07-16T09:33:43.892Z,99192.83
2023-07-16T09:37:42.872Z,99189.52
2023-07-16T09:41:40.880Z,99187.39
2023-07-16T09:45:38.862Z,99187.85
2023-07-16T09:49:36.941Z,99186.48
2023-07-16T09:53:35.809Z,99187.48
2023-07-16T09:57:33.864Z,99186.67
2023-07-16T10:01:32.012Z,99183.14
2023-07-16T10:05:29.917Z,99185.66
2023-07-16T10:09:27.819Z,99186.77
2023-07-16T10:13:27.836Z,99191.52
2023-07-16T10:17:29.914Z,99191.28
2023-07-16T10:21:27.805Z,99193.33
2023-07-16T10:25:37.805Z,99192.14
2023-07-16T10:29:35.845Z,99190.91
2023-07-16T10:33:33.792Z,99188.45
2023-07-16T10:37:33.811Z,99182.23
2023-07-16T10:41:31.816Z,99183.03
2023-07-16T10:45:29.863Z,99174.48
2023-07-16T10:49:27.814Z,99169.91
2023-07-16T10:53:26.814Z,99166.10
2023-07-16T10:57:26.805Z,99162.05
2023-07-16T11:01:24.861Z,99160.34
2023-07-16T11:05:25.744Z,99159.61
2023-07-16T11:09:26.818Z,99150.88
2023-07-16T11:13:24.790Z,99150.08
2023-07-16T11:17:23.966Z,99155.48
2023-07-16T11:21:21.778Z,99156.61
2023-07-16T11:25:21.609Z,99159.46
2023-07-16T11:29:30.821Z,99155.86
2023-07-16T11:33:28.901Z,99156.64
2023-07-16T11:37:28.780Z,99153.66
2023-07-16T11:41:27.843Z,99151.05
2023-07-16T11:45:35.739Z,99151.42
2023-07-16T11:49:33.854Z,99151.39
2023-07-16T11:53:32.749Z,99149.81
2023-07-16T11:57:30.741Z,99147.08
2023-07-16T12:01:28.819Z,99146.27
2023-07-16T12:05:41.754Z,99142.38
2023-07-16T12:09:44.742Z,99139.39
2023-07-16T12:13:42.779Z,99141.46
2023-07-16T12:17:40.764Z,99145.05
2023-07-16T12:21:38.802Z,99151.71
2023-07-16T12:25:36.756Z,99145.23
2023-07-16T12:29:34.743Z,99147.52
2023-07-16T12:33:32.742Z,99140.22
2023-07-16T12:37:31.821Z,99130.09
2023-07-16T12:41:32.710Z,99132.35
2023-07-16T12:45:30.769Z,99136.58
2023-07-16T12:49:28.701Z,99133.91
2023-07-16T12:53:26.930Z,99131.52
2023-07-16T12:57:24.670Z,99131.50
2023-07-16T13:01:22.801Z,99132.55
2023-07-16T13:05:20.713Z,99132.02
2023-07-16T13:09:18.744Z,99130.26
2023-07-16T13:13:16.697Z,99131.23
2023-07-16T13:17:14.725Z,99131.52
2023-07-16T13:21:12.700Z,99136.23
2023-07-16T13:25:10.736Z,99136.29
2023-07-16T13:29:08.676Z,99137.11
2023-07-16T13:33:06.785Z,99130.70
2023-07-16T13:37:04.664Z,99126.95
2023-07-16T13:41:02.740Z,99128.06
2023-07-16T13:45:00.761Z,99127.80
2023-07-16T13:48:59.746Z,99122.19
2023-07-16T13:52:57.683Z,99118.52
2023-07-16T13:56:55.699Z,99118.30
2023-07-16T14:00:53.638Z,99116.77
2023-07-16T14:04:51.691Z,99117.75
2023-07-16T14:08:49.646Z,99120.08
2023-07-16T14:12:47.709Z,99120.52
2023-07-16T14:16:45.688Z,99118.64
2023-07-16T14:20:43.672Z,99119.15
2023-07-16T14:24:41.665Z,99117.85
2023-07-16T14:28:39.669Z,99111.55
2023-07-16T14:32:39.642Z,99108.31
2023-07-16T14:36:37.674Z,99097.45
2023-07-16T14:40:35.641Z,99093.73
2023-07-16T14:44:33.631Z,99091.96
2023-07-16T14:48:31.624Z,99091.15
2023-07-16T14:52:29.690Z,99087.74
2023-07-16T14:56:27.655Z,99090.35
2023-07-16T15:00:26.646Z,99087.05
2023-07-16T15:04:24.626Z,99084.73
2023-07-16T15:08:22.655Z,99082.44
2023-07-16T15:12:23.627Z,99077.70
2023-07-16T15:16:21.898Z,99070.09
2023-07-16T15:20:19.584Z,99068.58
2023-07-16T15:24:17.632Z,99068.66
2023-07-16T15:28:15.608Z,99064.63
2023-07-16T15:32:13.601Z,99069.95
2023-07-16T15:36:12.635Z,99066.17
2023-07-16T15:40:12.600Z,99068.42
2023-07-16T15:44:11.582Z,99068.08
2023-07-16T15:48:09.725Z,99064.66
2023-07-16T15:52:07.599Z,99062.30
2023-07-16T15:56:05.617Z,99063.14
2023-07-16T16:00:03.550Z,99068.30
2023-07-16T16:04:02.611Z,99070.77
2023-07-16T16:08:37.603Z,99066.84
2023-07-16T16:12:35.597Z,99066.77
2023-07-16T16:16:33.565Z,99069.48
2023-07-16T16:20:31.701Z,99070.00
2023-07-16T16:24:29.551Z,99065.29
2023-07-16T16:28:27.577Z,99068.29
2023-07-16T16:32:25.585Z,99070.04
2023-07-16T16:36:26.661Z,99070.67
2023-07-16T16:40:24.594Z,99070.26
2023-07-16T16:44:22.559Z,99069.41
2023-07-16T16:48:20.521Z,99066.50
2023-07-16T16:52:18.534Z,99071.30
2023-07-16T16:56:21.570Z,99065.34
2023-07-16T17:00:20.581Z,99060.31
2023-07-16T17:04:18.708Z,99061.75
2023-07-16T17:08:16.571Z,99064.52
2023-07-16T17:12:14.591Z,99065.15
2023-07-16T17:16:12.595Z,99062.89
2023-07-16T17:20:13.828Z,99067.95
2023-07-16T17:24:11.598Z,99069.27
2023-07-16T17:28:09.535Z,99073.00
2023-07-16T17:32:07.603Z,99073.90
2023-07-16T17:36:05.486Z,99070.88
2023-07-16T17:40:03.536Z,99077.80
2023-07-16T17:44:01.558Z,99080.13
2023-07-16T17:47:59.577Z,99077.97
2023-07-16T17:51:57.523Z,99083.91
2023-07-16T17:55:59.593Z,99086.43
2023-07-16T18:00:08.723Z,99087.38
2023-07-16T18:04:11.697Z,99088.69
2023-07-16T18:08:09.489Z,99090.44
2023-07-16T18:12:07.557Z,99091.58
2023-07-16T18:16:05.514Z,99089.67
2023-07-16T18:20:03.534Z,99088.30
2023-07-16T18:24:01.529Z,99089.10
2023-07-16T18:27:59.570Z,99087.59
2023-07-16T18:31:57.524Z,99088.09
2023-07-16T18:35:57.460Z,99091.19
2023-07-16T18:39:55.460Z,99099.47
2023-07-16T18:43:53.609Z,99099.41
2023-07-16T18:47:51.519Z,99103.18
2023-07-16T18:51:49.489Z,99110.40
2023-07-16T18:55:47.427Z,99112.61
2023-07-16T18:59:45.463Z,99124.92
2023-07-16T19:03:43.453Z,99133.48
2023-07-16T19:07:41.480Z,99141.13
2023-07-16T19:11:39.453Z,99142.11
2023-07-16T19:15:37.454Z,99150.34
2023-07-16T19:19:35.505Z,99158.78
2023-07-16T19:23:33.459Z,99171.24
2023-07-16T19:27:31.411Z,99174.69
2023-07-16T19:31:30.590Z,99187.67
2023-07-16T19:35:32.073Z,99187.39
2023-07-16T19:39:31.454Z,99189.05
2023-07-16T19:43:29.446Z,99190.58
2023-07-16T19:47:27.479Z,99186.67
2023-07-16T19:51:25.424Z,99193.58
2023-07-16T19:55:23.479Z,99197.86
2023-07-16T19:59:21.434Z,99196.24
2023-07-16T20:03:19.535Z,99205.74
2023-07-16T20:07:17.488Z,99210.36
2023-07-16T20:11:15.718Z,99212.75
2023-07-16T20:15:13.420Z,99218.07
2023-07-16T20:19:12.469Z,99218.39
2023-07-16T20:23:10.586Z,99223.41
2023-07-16T20:27:08.472Z,99230.02
2023-07-16T20:31:06.471Z,99228.37
2023-07-16T20:35:04.397Z,99228.66
2023-07-16T20:39:02.469Z,99223.62
2023-07-16T20:43:00.410Z,99229.31
2023-07-16T20:46:58.468Z,99232.45
2023-07-16T20:50:56.407Z,99236.02
2023-07-16T20:54:54.405Z,99237.08
2023-07-16T20:58:52.385Z,99237.51
2023-07-16T21:02:53.514Z,99236.88
2023-07-16T21:06:51.398Z,99244.60
2023-07-16T21:10:49.366Z,99241.77
2023-07-16T21:14:47.361Z,99242.19
2023-07-16T21:18:46.322Z,99248.53
2023-07-16T21:22:45.428Z,99251.81
2023-07-16T21:26:43.345Z,99258.70
2023-07-16T21:30:41.438Z,99261.35
2023-07-16T21:34:39.347Z,99266.67
2023-07-16T21:38:37.356Z,99270.88
2023-07-16T21:42:35.363Z,99274.23
2023-07-16T21:46:33.371Z,99275.74
2023-07-16T21:50:31.337Z,99278.27
2023-07-16T21:54:29.474Z,99284.55
2023-07-16T21:58:27.324Z,99281.34
2023-07-16T22:02:27.270Z,99288.08
2023-07-16T22:06:27.298Z,99289.17
2023-07-16T22:10:26.316Z,99289.14
2023-07-16T22:14:31.296Z,99292.58
2023-07-16T22:18:29.340Z,99290.84
2023-07-16T22:22:27.266Z,99290.66
2023-07-16T22:26:25.368Z,99286.99
2023-07-16T22:30:23.307Z,99286.33
2023-07-16T22:34:23.291Z,99290.73
2023-07-16T22:38:21.287Z,99284.94
2023-07-16T22:42:19.370Z,99280.49
2023-07-16T22:46:17.316Z,99279.55
2023-07-16T22:50:15.277Z,99276.80
2023-07-16T22:54:13.255Z,99275.67
2023-07-16T22:58:11.274Z,99270.71
2023-07-16T23:02:09.254Z,99271.87
2023-07-16T23:06:07.262Z,99268.06
2023-07-16T23:10:05.309Z,99264.59
2023-07-16T23:14:03.268Z,99258.98
2023-07-16T23:18:01.285Z,99270.65
2023-07-16T23:21:59.227Z,99271.13
2023-07-16T23:25:57.271Z,99276.52
2023-07-16T23:29:56.325Z,99278.59
2023-07-16T23:33:54.252Z,99276.82
2023-07-16T23:37:52.271Z,99276.20
2023-07-16T23:41:50.195Z,99282.71
2023-07-16T23:45:48.239Z,99287.36
2023-07-16T23:49:46.226Z,99291.58
2023-07-16T23:53:44.214Z,99292.60
2023-07-16T23:57:42.229Z,99293.00
